createdAt,value
2019-03-15T00:01:11.128Z,3.36
2019-03-15T00:03:18.471Z,3.36
2019-03-15T00:05:25.948Z,3.37
2019-03-15T00:07:33.196Z,3.41
2019-03-15T00:09:40.555Z,3.40
2019-03-15T00:11:47.809Z,3.42
2019-03-15T00:13:55.262Z,3.35
2019-03-15T00:16:02.695Z,3.34
2019-03-15T00:18:09.938Z,3.33
2019-03-15T00:20:18.506Z,3.30
2019-03-15T00:22:25.744Z,3.32
2019-03-15T00:24:33.131Z,3.30
2019-03-15T00:26:40.556Z,3.27
2019-03-15T00:28:47.795Z,3.29
2019-03-15T00:30:55.173Z,3.29
2019-03-15T00:33:02.579Z,3.27
2019-03-15T00:35:10.336Z,3.27
2019-03-15T00:37:17.656Z,3.28
2019-03-15T00:39:25.015Z,3.25
2019-03-15T00:41:32.345Z,3.32
2019-03-15T00:43:39.620Z,3.36
2019-03-15T00:45:46.965Z,3.39
2019-03-15T00:47:54.334Z,3.42
2019-03-15T00:50:01.694Z,3.43
2019-03-15T00:52:09.070Z,3.41
2019-03-15T00:54:16.438Z,3.45
2019-03-15T00:56:23.763Z,3.51
2019-03-15T00:58:31.252Z,3.52
2019-03-15T01:00:38.635Z,3.55
2019-03-15T01:02:46.045Z,3.48
2019-03-15T01:04:53.390Z,3.47
2019-03-15T01:07:00.782Z,3.47
2019-03-15T01:09:08.899Z,3.40
2019-03-15T01:11:16.174Z,3.41
2019-03-15T01:13:23.535Z,3.40
2019-03-15T01:15:30.914Z,3.41
2019-03-15T01:17:38.285Z,3.40
2019-03-15T01:19:45.586Z,3.43
2019-03-15T01:21:52.968Z,3.43
2019-03-15T01:24:00.309Z,3.45
2019-03-15T01:26:07.944Z,3.49
2019-03-15T01:28:15.139Z,3.54
2019-03-15T01:30:22.426Z,3.53
2019-03-15T01:32:29.760Z,3.57
2019-03-15T01:34:37.152Z,3.58
2019-03-15T01:36:44.517Z,3.57
2019-03-15T01:38:51.880Z,3.59
2019-03-15T01:40:59.196Z,3.60
2019-03-15T01:43:06.979Z,3.60
2019-03-15T01:45:14.515Z,3.57
2019-03-15T01:47:21.843Z,3.57
2019-03-15T01:49:29.242Z,3.58
2019-03-15T01:51:36.516Z,3.59
2019-03-15T01:53:43.858Z,3.56
2019-03-15T01:55:51.194Z,3.57
2019-03-15T01:57:58.587Z,3.60
2019-03-15T02:00:06.370Z,3.59
2019-03-15T02:02:13.732Z,3.63
2019-03-15T02:04:21.128Z,3.63
2019-03-15T02:06:28.451Z,3.62
2019-03-15T02:08:35.838Z,3.62
2019-03-15T02:10:43.221Z,3.62
2019-03-15T02:12:50.475Z,3.63
2019-03-15T02:14:57.804Z,3.65
2019-03-15T02:17:05.148Z,3.64
2019-03-15T02:19:12.478Z,3.65
2019-03-15T02:21:19.813Z,3.71
2019-03-15T02:23:27.182Z,3.69
2019-03-15T02:25:34.538Z,3.71
2019-03-15T02:27:41.845Z,3.73
2019-03-15T02:29:49.175Z,3.75
2019-03-15T02:31:56.478Z,3.75
2019-03-15T02:34:03.747Z,3.81
2019-03-15T02:36:11.273Z,3.80
2019-03-15T02:38:18.620Z,3.81
2019-03-15T02:40:25.970Z,3.83
2019-03-15T02:42:33.292Z,3.87
2019-03-15T02:44:40.670Z,3.84
2019-03-15T02:46:47.904Z,3.86
2019-03-15T02:48:55.225Z,3.92
2019-03-15T02:51:02.525Z,3.92
2019-03-15T02:53:09.931Z,3.98
2019-03-15T02:55:17.260Z,3.99
2019-03-15T02:57:24.633Z,3.98
2019-03-15T02:59:31.965Z,3.99
2019-03-15T03:01:39.250Z,3.98
2019-03-15T03:03:47.213Z,4.02
2019-03-15T03:05:54.564Z,4.00
2019-03-15T03:08:01.853Z,4.01
2019-03-15T03:10:09.769Z,4.02
2019-03-15T03:12:17.577Z,4.03
2019-03-15T03:14:25.189Z,4.04
2019-03-15T03:16:32.573Z,4.06
2019-03-15T03:18:39.934Z,4.05
2019-03-15T03:20:48.208Z,4.06
2019-03-15T03:22:55.857Z,4.08
2019-03-15T03:25:03.136Z,4.03
2019-03-15T03:27:10.410Z,4.05
2019-03-15T03:29:17.742Z,4.01
2019-03-15T03:31:25.254Z,4.02
2019-03-15T03:33:32.637Z,4.00
2019-03-15T03:35:39.988Z,4.00
2019-03-15T03:37:47.306Z,4.02
2019-03-15T03:39:54.641Z,3.97
2019-03-15T03:42:01.997Z,4.02
2019-03-15T03:44:09.437Z,3.97
2019-03-15T03:46:16.732Z,3.94
2019-03-15T03:48:24.179Z,3.97
2019-03-15T03:50:31.511Z,3.96
2019-03-15T03:52:41.445Z,3.95
2019-03-15T03:54:48.000Z,3.95
2019-03-15T03:56:55.288Z,3.93
2019-03-15T03:59:02.651Z,3.94
2019-03-15T04:01:10.130Z,3.94
2019-03-15T04:03:17.752Z,4.00
2019-03-15T04:05:25.204Z,3.98
2019-03-15T04:07:32.572Z,3.96
2019-03-15T04:09:40.196Z,3.97
2019-03-15T04:11:55.277Z,3.98
2019-03-15T04:13:56.667Z,3.97
2019-03-15T04:16:04.088Z,4.00
2019-03-15T04:18:11.362Z,4.00
2019-03-15T04:20:18.655Z,4.01
2019-03-15T04:22:26.036Z,3.97
2019-03-15T04:24:33.381Z,3.96
2019-03-15T04:26:40.694Z,3.96
2019-03-15T04:28:48.003Z,3.96
2019-03-15T04:30:55.362Z,3.93
2019-03-15T04:33:02.687Z,3.93
2019-03-15T04:35:10.127Z,3.92
2019-03-15T04:37:17.453Z,3.90
2019-03-15T04:39:24.787Z,3.89
2019-03-15T04:41:32.056Z,3.87
2019-03-15T04:43:39.373Z,3.85
2019-03-15T04:45:46.687Z,3.87
2019-03-15T04:47:54.159Z,3.84
2019-03-15T04:50:01.464Z,3.86
2019-03-15T04:52:08.828Z,3.86
2019-03-15T04:54:16.193Z,3.84
2019-03-15T04:56:23.494Z,3.82
2019-03-15T04:58:30.834Z,3.85
2019-03-15T05:00:38.177Z,3.78
2019-03-15T05:02:45.558Z,3.79
2019-03-15T05:04:52.863Z,3.76
2019-03-15T05:07:00.052Z,3.75
2019-03-15T05:09:08.324Z,3.75
2019-03-15T05:11:15.731Z,3.76
2019-03-15T05:13:23.105Z,3.74
2019-03-15T05:15:30.510Z,3.74
2019-03-15T05:17:37.837Z,3.73
2019-03-15T05:19:45.353Z,3.72
2019-03-15T05:21:52.667Z,3.72
2019-03-15T05:24:00.118Z,3.72
2019-03-15T05:26:07.571Z,3.71
2019-03-15T05:28:14.923Z,3.71
2019-03-15T05:30:22.189Z,3.68
2019-03-15T05:32:31.055Z,3.67
2019-03-15T05:34:38.586Z,3.67
2019-03-15T05:36:46.091Z,3.68
2019-03-15T05:38:53.533Z,3.71
2019-03-15T05:41:00.919Z,3.69
2019-03-15T05:43:08.359Z,3.68
2019-03-15T05:45:15.840Z,3.67
2019-03-15T05:47:24.200Z,3.68
2019-03-15T05:49:31.933Z,3.67
2019-03-15T05:51:40.517Z,3.66
2019-03-15T05:53:48.999Z,3.66
2019-03-15T05:55:56.382Z,3.65
2019-03-15T05:58:03.724Z,3.64
2019-03-15T06:00:12.986Z,3.66
2019-03-15T06:02:20.578Z,3.64
2019-03-15T06:04:27.893Z,3.66
2019-03-15T06:06:35.280Z,3.67
2019-03-15T06:08:42.639Z,3.65
2019-03-15T06:10:49.966Z,3.66
2019-03-15T06:12:57.333Z,3.65
2019-03-15T06:15:04.868Z,3.65
2019-03-15T06:17:12.148Z,3.63
2019-03-15T06:19:19.502Z,3.66
2019-03-15T06:21:26.903Z,3.65
2019-03-15T06:23:34.424Z,3.63
2019-03-15T06:25:42.054Z,3.68
2019-03-15T06:27:49.660Z,3.68
2019-03-15T06:29:57.140Z,3.68
2019-03-15T06:32:04.618Z,3.69
2019-03-15T06:34:12.014Z,3.73
2019-03-15T06:36:19.494Z,3.71
2019-03-15T06:38:26.718Z,3.69
2019-03-15T06:40:33.978Z,3.71
2019-03-15T06:42:41.442Z,3.73
2019-03-15T06:44:57.871Z,3.70
2019-03-15T06:46:57.848Z,3.74
2019-03-15T06:49:05.292Z,3.78
2019-03-15T06:51:12.644Z,3.77
2019-03-15T06:53:19.869Z,3.79
2019-03-15T06:55:27.237Z,3.81
2019-03-15T06:57:34.592Z,3.84
2019-03-15T06:59:42.087Z,3.84
2019-03-15T07:01:50.619Z,3.86
2019-03-15T07:03:58.214Z,3.89
2019-03-15T07:06:05.576Z,3.94
2019-03-15T07:08:13.162Z,3.96
2019-03-15T07:10:20.717Z,4.02
2019-03-15T07:12:28.137Z,4.05
2019-03-15T07:14:35.600Z,4.05
2019-03-15T07:16:42.995Z,4.11
2019-03-15T07:18:50.402Z,4.10
2019-03-15T07:20:57.807Z,4.17
2019-03-15T07:23:05.182Z,4.16
2019-03-15T07:25:12.884Z,4.20
2019-03-15T07:27:21.936Z,4.20
2019-03-15T07:29:29.484Z,4.20
2019-03-15T07:31:38.287Z,4.25
2019-03-15T07:33:45.668Z,4.24
2019-03-15T07:35:53.205Z,4.25
2019-03-15T07:38:00.674Z,4.25
2019-03-15T07:40:08.940Z,4.29
2019-03-15T07:42:16.423Z,4.31
2019-03-15T07:44:23.877Z,4.34
2019-03-15T07:46:31.561Z,4.39
2019-03-15T07:48:39.996Z,4.40
2019-03-15T07:50:47.723Z,4.43
2019-03-15T07:52:55.506Z,4.42
2019-03-15T07:55:02.866Z,4.45
2019-03-15T07:57:10.654Z,4.45
2019-03-15T07:59:18.039Z,4.45
2019-03-15T08:01:25.530Z,4.45
2019-03-15T08:03:32.857Z,4.46
2019-03-15T08:05:40.168Z,4.47
2019-03-15T08:07:47.744Z,4.52
2019-03-15T08:09:55.128Z,4.51
2019-03-15T08:12:02.534Z,4.51
2019-03-15T08:14:10.046Z,4.50
2019-03-15T08:16:17.383Z,4.48
2019-03-15T08:18:24.895Z,4.53
2019-03-15T08:20:32.249Z,4.58
2019-03-15T08:22:39.644Z,4.62
2019-03-15T08:24:51.787Z,4.70
2019-03-15T08:26:56.084Z,4.70
2019-03-15T08:29:03.702Z,4.63
2019-03-15T08:31:11.173Z,4.63
2019-03-15T08:33:18.409Z,4.68
2019-03-15T08:35:25.777Z,4.70
2019-03-15T08:37:33.227Z,4.71
2019-03-15T08:39:40.693Z,4.73
2019-03-15T08:41:49.344Z,4.74
2019-03-15T08:43:56.816Z,4.74
2019-03-15T08:46:04.276Z,4.79
2019-03-15T08:48:12.424Z,4.84
2019-03-15T08:50:19.973Z,4.80
2019-03-15T08:52:27.411Z,4.83
2019-03-15T08:54:34.815Z,4.83
2019-03-15T08:56:42.265Z,4.81
2019-03-15T08:58:49.716Z,4.80
2019-03-15T09:00:57.119Z,4.79
2019-03-15T09:03:04.673Z,4.79
2019-03-15T09:05:12.692Z,4.75
2019-03-15T09:07:20.018Z,4.75
2019-03-15T09:09:27.388Z,4.75
2019-03-15T09:11:34.869Z,4.76
2019-03-15T09:13:42.272Z,4.78
2019-03-15T09:15:49.651Z,4.77
2019-03-15T09:17:57.059Z,4.80
2019-03-15T09:20:04.783Z,4.84
2019-03-15T09:22:12.245Z,4.86
2019-03-15T09:24:19.538Z,4.85
2019-03-15T09:26:29.270Z,4.84
2019-03-15T09:28:36.692Z,4.84
2019-03-15T09:30:44.072Z,4.85
2019-03-15T09:32:51.485Z,4.88
2019-03-15T09:34:58.941Z,4.87
2019-03-15T09:37:06.434Z,4.90
2019-03-15T09:39:13.945Z,5.00
2019-03-15T09:41:31.894Z,5.09
2019-03-15T09:43:30.474Z,5.12
2019-03-15T09:45:37.924Z,5.11
2019-03-15T09:47:46.253Z,5.10
2019-03-15T09:49:53.733Z,5.09
2019-03-15T09:52:01.218Z,5.12
2019-03-15T09:54:08.792Z,5.14
2019-03-15T09:56:16.418Z,5.17
2019-03-15T09:58:23.875Z,5.13
2019-03-15T10:00:31.445Z,5.13
2019-03-15T10:02:38.877Z,5.10
2019-03-15T10:04:46.318Z,5.08
2019-03-15T10:06:53.805Z,5.08
2019-03-15T10:09:01.311Z,5.10
2019-03-15T10:11:08.702Z,5.10
2019-03-15T10:13:16.200Z,5.11
2019-03-15T10:15:26.130Z,5.14
2019-03-15T10:17:32.897Z,5.24
2019-03-15T10:19:40.238Z,5.25
2019-03-15T10:21:47.784Z,5.36
2019-03-15T10:23:55.366Z,5.45
2019-03-15T10:26:02.885Z,5.47
2019-03-15T10:28:10.339Z,5.52
2019-03-15T10:30:18.134Z,5.69
2019-03-15T10:32:25.600Z,5.80
2019-03-15T10:34:35.578Z,5.77
2019-03-15T10:36:41.983Z,5.87
2019-03-15T10:38:49.403Z,5.97
2019-03-15T10:40:56.855Z,6.03
2019-03-15T10:43:04.488Z,6.01
2019-03-15T10:45:12.035Z,6.17
2019-03-15T10:47:20.375Z,6.27
2019-03-15T10:49:30.744Z,6.30
2019-03-15T10:51:36.994Z,6.37
2019-03-15T10:53:45.857Z,6.37
2019-03-15T10:55:59.971Z,6.48
2019-03-15T10:58:03.483Z,6.44
2019-03-15T11:00:13.840Z,6.30
2019-03-15T11:02:21.258Z,6.16
2019-03-15T11:04:28.687Z,6.04
2019-03-15T11:06:36.067Z,5.89
2019-03-15T11:08:45.026Z,5.78
2019-03-15T11:10:52.416Z,5.77
2019-03-15T11:12:59.734Z,5.77
2019-03-15T11:15:08.074Z,5.84
2019-03-15T11:17:15.410Z,5.91
2019-03-15T11:19:22.781Z,5.97
2019-03-15T11:21:30.146Z,6.06
2019-03-15T11:23:37.486Z,6.08
2019-03-15T11:25:45.004Z,6.26
2019-03-15T11:27:52.453Z,6.76
2019-03-15T11:29:59.720Z,6.93
2019-03-15T11:32:07.036Z,7.14
2019-03-15T11:34:14.434Z,7.04
2019-03-15T11:36:21.869Z,6.94
2019-03-15T11:38:29.160Z,7.00
2019-03-15T11:40:38.032Z,7.16
2019-03-15T11:42:45.629Z,7.14
2019-03-15T11:44:53.018Z,7.14
2019-03-15T11:47:00.419Z,7.11
2019-03-15T11:49:08.476Z,7.13
2019-03-15T11:51:15.801Z,6.98
2019-03-15T11:53:23.202Z,6.71
2019-03-15T11:55:30.907Z,6.57
2019-03-15T11:57:38.335Z,6.52
2019-03-15T11:59:46.596Z,6.50
2019-03-15T12:02:03.391Z,6.43
2019-03-15T12:04:03.172Z,6.48
2019-03-15T12:06:10.611Z,6.65
2019-03-15T12:08:17.957Z,6.76
2019-03-15T12:10:25.341Z,6.84
2019-03-15T12:12:33.443Z,6.86
2019-03-15T12:14:41.496Z,6.87
2019-03-15T12:16:48.938Z,6.87
2019-03-15T12:18:56.335Z,6.86
2019-03-15T12:21:03.749Z,6.85
2019-03-15T12:23:11.126Z,6.73
2019-03-15T12:25:18.662Z,6.69
2019-03-15T12:27:26.169Z,6.74
2019-03-15T12:29:33.612Z,6.80
2019-03-15T12:31:41.228Z,6.85
2019-03-15T12:33:48.864Z,6.93
2019-03-15T12:35:56.330Z,7.00
2019-03-15T12:38:03.957Z,7.09
2019-03-15T12:40:12.656Z,7.43
2019-03-15T12:42:20.258Z,8.02
2019-03-15T12:44:28.667Z,7.81
2019-03-15T12:46:36.111Z,7.50
2019-03-15T12:48:43.550Z,7.41
2019-03-15T12:50:50.993Z,7.25
2019-03-15T12:52:58.487Z,7.30
2019-03-15T12:55:06.154Z,7.17
2019-03-15T12:57:13.641Z,7.07
2019-03-15T12:59:21.153Z,6.99
2019-03-15T13:01:28.710Z,7.01
2019-03-15T13:03:36.151Z,7.04
2019-03-15T13:05:43.647Z,7.06
2019-03-15T13:07:51.196Z,7.00
2019-03-15T13:09:58.648Z,6.97
2019-03-15T13:12:06.202Z,7.04
2019-03-15T13:14:13.733Z,7.07
2019-03-15T13:16:22.073Z,7.01
2019-03-15T13:18:29.503Z,7.34
2019-03-15T13:20:36.952Z,7.61
2019-03-15T13:22:44.423Z,8.05
2019-03-15T13:24:53.080Z,7.95
2019-03-15T13:27:07.321Z,8.09
2019-03-15T13:29:10.085Z,8.08
2019-03-15T13:31:17.715Z,8.24
2019-03-15T13:33:25.366Z,8.15
2019-03-15T13:35:32.837Z,8.21
2019-03-15T13:37:42.917Z,8.10
2019-03-15T13:39:49.560Z,7.88
2019-03-15T13:41:57.099Z,7.71
2019-03-15T13:44:04.822Z,7.70
2019-03-15T13:46:13.259Z,7.57
2019-03-15T13:48:21.479Z,7.51
2019-03-15T13:50:29.361Z,7.46
2019-03-15T13:52:37.206Z,7.10
2019-03-15T13:54:45.008Z,6.51
2019-03-15T13:56:52.790Z,6.40
2019-03-15T13:59:00.880Z,6.34
2019-03-15T14:01:08.573Z,6.34
2019-03-15T14:03:16.370Z,6.32
2019-03-15T14:05:24.207Z,6.32
2019-03-15T14:07:31.928Z,6.31
2019-03-15T14:09:39.739Z,6.28
2019-03-15T14:11:48.961Z,6.29
2019-03-15T14:13:56.463Z,6.23
2019-03-15T14:16:04.156Z,6.15
2019-03-15T14:18:12.830Z,6.04
2019-03-15T14:20:21.671Z,6.00
2019-03-15T14:22:29.113Z,5.87
2019-03-15T14:24:36.825Z,5.78
2019-03-15T14:26:44.394Z,5.73
2019-03-15T14:28:51.941Z,5.72
2019-03-15T14:30:59.497Z,5.75
2019-03-15T14:33:07.149Z,5.75
2019-03-15T14:35:14.745Z,5.81
2019-03-15T14:37:22.493Z,5.83
2019-03-15T14:39:30.252Z,5.87
2019-03-15T14:41:38.326Z,5.90
2019-03-15T14:43:45.990Z,5.98
2019-03-15T14:45:58.926Z,6.01
2019-03-15T14:48:08.091Z,6.05
2019-03-15T14:50:15.971Z,6.09
2019-03-15T14:52:23.587Z,6.11
2019-03-15T14:54:31.358Z,6.17
2019-03-15T14:56:41.860Z,6.23
2019-03-15T14:58:49.475Z,6.25
2019-03-15T15:00:57.010Z,6.28
2019-03-15T15:03:04.653Z,6.31
2019-03-15T15:05:15.014Z,6.35
2019-03-15T15:07:22.680Z,6.38
2019-03-15T15:09:30.210Z,6.41
2019-03-15T15:11:37.713Z,6.42
2019-03-15T15:13:45.173Z,6.44
2019-03-15T15:15:52.636Z,6.43
2019-03-15T15:18:00.357Z,6.47
2019-03-15T15:20:08.914Z,6.46
2019-03-15T15:22:16.355Z,6.44
2019-03-15T15:24:23.869Z,6.43
2019-03-15T15:26:31.624Z,6.37
2019-03-15T15:28:39.187Z,6.28
2019-03-15T15:30:47.204Z,6.26
2019-03-15T15:32:54.682Z,6.24
2019-03-15T15:35:02.203Z,6.24
2019-03-15T15:37:09.720Z,6.23
2019-03-15T15:39:17.122Z,6.23
2019-03-15T15:41:25.068Z,6.21
2019-03-15T15:43:32.646Z,6.21
2019-03-15T15:45:40.161Z,6.18
2019-03-15T15:47:48.120Z,6.16
2019-03-15T15:49:55.640Z,6.15
2019-03-15T15:52:03.075Z,6.16
2019-03-15T15:54:10.717Z,6.12
2019-03-15T15:56:18.206Z,6.11
2019-03-15T15:58:25.785Z,6.13
2019-03-15T16:00:33.300Z,6.10
2019-03-15T16:02:41.018Z,6.06
2019-03-15T16:04:48.485Z,6.06
2019-03-15T16:06:56.038Z,6.01
2019-03-15T16:09:04.064Z,5.99
2019-03-15T16:11:11.764Z,5.93
2019-03-15T16:13:19.303Z,5.91
2019-03-15T16:15:27.397Z,5.94
2019-03-15T16:17:35.023Z,5.90
2019-03-15T16:19:52.891Z,5.88
2019-03-15T16:22:00.397Z,5.90
2019-03-15T16:24:09.330Z,5.88
2019-03-15T16:26:16.851Z,5.84
2019-03-15T16:28:31.446Z,5.83
2019-03-15T16:30:33.674Z,5.78
2019-03-15T16:32:41.562Z,5.72
2019-03-15T16:34:49.097Z,5.65
2019-03-15T16:36:56.606Z,5.65
2019-03-15T16:39:04.889Z,5.61
2019-03-15T16:41:12.425Z,5.58
2019-03-15T16:43:20.080Z,5.56
2019-03-15T16:45:27.644Z,5.59
2019-03-15T16:47:35.334Z,5.59
2019-03-15T16:49:42.886Z,5.55
2019-03-15T16:51:50.409Z,5.57
2019-03-15T16:53:58.160Z,5.52
2019-03-15T16:56:05.942Z,5.49
2019-03-15T16:58:13.519Z,5.47
2019-03-15T17:00:21.011Z,5.43
2019-03-15T17:02:28.675Z,5.43
2019-03-15T17:04:36.206Z,5.45
2019-03-15T17:06:43.863Z,5.42
2019-03-15T17:08:51.377Z,5.45
2019-03-15T17:10:59.197Z,5.45
2019-03-15T17:13:06.739Z,5.41
2019-03-15T17:15:14.907Z,5.44
2019-03-15T17:17:22.499Z,5.40
2019-03-15T17:19:30.198Z,5.42
2019-03-15T17:21:37.974Z,5.38
2019-03-15T17:23:46.359Z,5.34
2019-03-15T17:25:54.066Z,5.36
2019-03-15T17:28:01.647Z,5.33
2019-03-15T17:30:11.862Z,5.35
2019-03-15T17:32:19.363Z,5.32
2019-03-15T17:34:26.971Z,5.36
2019-03-15T17:36:34.535Z,5.36
2019-03-15T17:38:42.062Z,5.32
2019-03-15T17:40:49.626Z,5.33
2019-03-15T17:42:57.292Z,5.31
2019-03-15T17:45:05.601Z,5.28
2019-03-15T17:47:13.222Z,5.26
2019-03-15T17:49:21.679Z,5.27
2019-03-15T17:51:29.582Z,5.27
2019-03-15T17:53:37.159Z,5.27
2019-03-15T17:55:44.671Z,5.26
2019-03-15T17:57:52.322Z,5.27
2019-03-15T18:00:23.386Z,5.22
2019-03-15T18:02:31.537Z,5.20
2019-03-15T18:04:39.174Z,5.20
2019-03-15T18:06:47.751Z,5.17
2019-03-15T18:08:55.333Z,5.15
2019-03-15T18:11:03.146Z,5.20
2019-03-15T18:13:11.098Z,5.21
2019-03-15T18:15:18.913Z,5.18
2019-03-15T18:17:26.543Z,5.20
2019-03-15T18:19:34.437Z,5.18
2019-03-15T18:21:42.029Z,5.17
2019-03-15T18:23:49.675Z,5.15
2019-03-15T18:25:57.267Z,5.14
2019-03-15T18:28:05.055Z,5.14
2019-03-15T18:30:13.562Z,5.14
2019-03-15T18:32:21.179Z,5.08
2019-03-15T18:34:29.673Z,5.07
2019-03-15T18:36:37.343Z,5.10
2019-03-15T18:38:45.141Z,5.04
2019-03-15T18:40:52.728Z,5.05
2019-03-15T18:43:00.364Z,5.04
2019-03-15T18:45:10.901Z,5.04
2019-03-15T18:47:18.484Z,5.07
2019-03-15T18:49:26.179Z,5.03
2019-03-15T18:51:34.305Z,5.08
2019-03-15T18:53:42.636Z,5.08
2019-03-15T18:55:50.687Z,5.06
2019-03-15T18:57:58.519Z,5.06
2019-03-15T19:00:07.712Z,5.08
2019-03-15T19:02:15.305Z,5.12
2019-03-15T19:04:23.382Z,5.11
2019-03-15T19:06:30.980Z,5.10
2019-03-15T19:08:38.555Z,5.17
2019-03-15T19:10:46.125Z,5.19
2019-03-15T19:12:53.684Z,5.17
2019-03-15T19:15:01.374Z,5.14
2019-03-15T19:17:10.080Z,5.19
2019-03-15T19:19:17.753Z,5.19
2019-03-15T19:21:26.198Z,5.20
2019-03-15T19:23:33.993Z,5.19
2019-03-15T19:25:41.991Z,5.20
2019-03-15T19:27:50.111Z,5.20
2019-03-15T19:29:57.599Z,5.22
2019-03-15T19:32:05.651Z,5.21
2019-03-15T19:34:13.515Z,5.20
2019-03-15T19:36:21.061Z,5.15
2019-03-15T19:38:28.632Z,5.21
2019-03-15T19:40:36.282Z,5.21
2019-03-15T19:42:45.560Z,5.23
2019-03-15T19:44:53.602Z,5.22
2019-03-15T19:47:01.136Z,5.28
2019-03-15T19:49:08.677Z,5.33
2019-03-15T19:51:16.266Z,5.30
2019-03-15T19:53:23.796Z,5.34
2019-03-15T19:55:32.268Z,5.38
2019-03-15T19:57:39.889Z,5.36
2019-03-15T19:59:47.567Z,5.32
2019-03-15T20:01:55.327Z,5.32
2019-03-15T20:04:02.886Z,5.28
2019-03-15T20:06:11.651Z,5.29
2019-03-15T20:08:19.340Z,5.26
2019-03-15T20:10:27.378Z,5.24
2019-03-15T20:12:35.167Z,5.27
2019-03-15T20:14:42.903Z,5.27
2019-03-15T20:16:50.432Z,5.26
2019-03-15T20:18:57.978Z,5.26
2019-03-15T20:21:05.586Z,5.28
2019-03-15T20:23:13.031Z,5.27
2019-03-15T20:25:21.535Z,5.21
2019-03-15T20:27:29.021Z,5.20
2019-03-15T20:29:36.585Z,5.20
2019-03-15T20:31:44.150Z,5.21
2019-03-15T20:33:51.756Z,5.17
2019-03-15T20:35:59.807Z,5.13
2019-03-15T20:38:07.396Z,5.10
2019-03-15T20:40:15.499Z,5.07
2019-03-15T20:42:23.126Z,5.08
2019-03-15T20:44:30.888Z,5.07
2019-03-15T20:46:38.643Z,5.08
2019-03-15T20:48:46.516Z,5.11
2019-03-15T20:50:54.286Z,5.12
2019-03-15T20:53:08.576Z,5.09
2019-03-15T20:55:11.761Z,5.07
2019-03-15T20:57:19.841Z,5.11
2019-03-15T20:59:28.334Z,5.10
2019-03-15T21:01:36.452Z,5.06
2019-03-15T21:03:55.613Z,5.12
2019-03-15T21:05:53.995Z,5.13
2019-03-15T21:08:02.371Z,5.13
2019-03-15T21:10:12.100Z,5.12
2019-03-15T21:12:20.443Z,5.10
2019-03-15T21:14:33.592Z,5.14
2019-03-15T21:16:39.697Z,5.13
2019-03-15T21:18:47.651Z,5.17
2019-03-15T21:20:55.463Z,5.23
2019-03-15T21:23:03.090Z,5.28
2019-03-15T21:25:13.423Z,5.29
2019-03-15T21:27:21.953Z,5.31
2019-03-15T21:29:30.164Z,5.31
2019-03-15T21:31:38.816Z,5.32
2019-03-15T21:33:47.109Z,5.28
2019-03-15T21:35:55.241Z,5.34
2019-03-15T21:38:03.234Z,5.39
2019-03-15T21:40:12.271Z,5.38
2019-03-15T21:42:20.417Z,5.36
2019-03-15T21:44:28.032Z,5.31
2019-03-15T21:46:38.706Z,5.29
2019-03-15T21:48:48.585Z,5.30
2019-03-15T21:50:56.097Z,5.34
2019-03-15T21:53:04.545Z,5.31
2019-03-15T21:55:13.071Z,5.38
2019-03-15T21:57:20.627Z,5.33
2019-03-15T21:59:28.478Z,5.33
2019-03-15T22:01:36.101Z,5.27
2019-03-15T22:03:43.748Z,5.25
2019-03-15T22:05:51.545Z,5.24
2019-03-15T22:07:59.256Z,5.20
2019-03-15T22:10:07.999Z,5.17
2019-03-15T22:12:15.712Z,5.15
2019-03-15T22:14:23.259Z,5.14
2019-03-15T22:16:30.931Z,5.19
2019-03-15T22:18:39.136Z,5.26
2019-03-15T22:20:46.886Z,5.21
2019-03-15T22:22:54.580Z,5.26
2019-03-15T22:25:02.481Z,5.26
2019-03-15T22:27:10.307Z,5.29
2019-03-15T22:29:18.023Z,5.36
2019-03-15T22:31:25.748Z,5.31
2019-03-15T22:33:33.673Z,5.36
2019-03-15T22:35:41.104Z,5.41
2019-03-15T22:37:49.608Z,5.46
2019-03-15T22:39:57.214Z,5.42
2019-03-15T22:42:04.913Z,5.40
2019-03-15T22:44:12.667Z,5.38
2019-03-15T22:46:21.528Z,5.42
2019-03-15T22:48:29.194Z,5.39
2019-03-15T22:50:36.616Z,5.39
2019-03-15T22:52:44.394Z,5.43
2019-03-15T22:54:51.932Z,5.45
2019-03-15T22:56:59.489Z,5.42
2019-03-15T22:59:06.936Z,5.45
2019-03-15T23:01:14.859Z,5.48
2019-03-15T23:03:22.236Z,5.44
2019-03-15T23:05:29.864Z,5.45
2019-03-15T23:07:38.203Z,5.47
2019-03-15T23:09:45.574Z,5.46
2019-03-15T23:11:52.914Z,5.61
2019-03-15T23:14:00.331Z,5.65
2019-03-15T23:16:07.977Z,5.64
2019-03-15T23:18:15.277Z,5.56
2019-03-15T23:20:22.551Z,5.40
2019-03-15T23:22:29.930Z,5.33
2019-03-15T23:24:37.386Z,5.24
2019-03-15T23:26:44.699Z,5.19
2019-03-15T23:28:52.193Z,5.13
2019-03-15T23:30:59.627Z,5.11
2019-03-15T23:33:07.041Z,5.04
2019-03-15T23:35:14.426Z,5.07
2019-03-15T23:37:21.752Z,5.00
2019-03-15T23:39:29.106Z,4.93
2019-03-15T23:41:36.365Z,4.93
2019-03-15T23:43:43.854Z,4.94
2019-03-15T23:45:51.206Z,4.97
2019-03-15T23:47:58.609Z,4.87
2019-03-15T23:50:06.638Z,4.82
2019-03-15T23:52:14.060Z,4.79
2019-03-15T23:54:21.392Z,4.81
2019-03-15T23:56:28.893Z,4.79
2019-03-15T23:58:36.224Z,4.79
